X  Sulje Metar Aviation säätiedot     EFPO Pori
Lämpötila
15°C Lämpötila
6°C Kastepiste
55% Kosteus



Tuuli
7 M/S
15 MPH
24 KM/T
13 KTS



300°
LPL
Nykyiset olosuhteet

Area Suihkut Area Suihkut
Paine 1025.92 (hPa) - 30.3 (inHg)
Näkyvyys 6.2 (maili) - 10 (km)
Lentokenttä
Lentokentän koodi EFPO

Sijainti: Pori
Etäisyys: 40 (km)

Metar:
EFPO 251350Z AUTO 30013KT 9999 VCSH //////CB 15/06 Q1026

Aika: 25-05-2020 16:50 EEST